sensor_id;sensor_type;location;lat;lon;timestamp;pressure;altitude;pressure_sealevel;temperature;humidity
74960;BME280;63518;49.572;1.106;2023-02-22T00:02:02;99326.56;;;7.58;76.67
74960;BME280;63518;49.572;1.106;2023-02-22T00:04:52;99319.69;;;7.66;76.81
74960;BME280;63518;49.572;1.106;2023-02-22T00:07:21;99309.84;;;7.44;75.87
74960;BME280;63518;49.572;1.106;2023-02-22T00:09:51;99315.06;;;7.77;75.28
74960;BME280;63518;49.572;1.106;2023-02-22T00:12:19;99322.19;;;7.62;75.58
74960;BME280;63518;49.572;1.106;2023-02-22T00:14:47;99326.03;;;7.51;77.17
74960;BME280;63518;49.572;1.106;2023-02-22T00:17:16;99314.47;;;7.49;76.38
74960;BME280;63518;49.572;1.106;2023-02-22T00:19:43;99323.53;;;7.50;77.17
74960;BME280;63518;49.572;1.106;2023-02-22T00:22:11;99305.16;;;7.35;76.71
74960;BME280;63518;49.572;1.106;2023-02-22T00:24:45;99326.28;;;7.50;76.48
74960;BME280;63518;49.572;1.106;2023-02-22T00:27:14;99310.34;;;7.41;76.03
74960;BME280;63518;49.572;1.106;2023-02-22T00:29:44;99317.75;;;7.41;76.17
74960;BME280;63518;49.572;1.106;2023-02-22T00:32:12;99310.38;;;7.52;75.55
74960;BME280;63518;49.572;1.106;2023-02-22T00:34:42;99314.47;;;7.49;77.28
74960;BME280;63518;49.572;1.106;2023-02-22T00:37:10;99291.47;;;7.35;76.85
74960;BME280;63518;49.572;1.106;2023-02-22T00:39:37;99306.81;;;7.56;76.08
74960;BME280;63518;49.572;1.106;2023-02-22T00:42:05;99313.94;;;7.72;75.45
74960;BME280;63518;49.572;1.106;2023-02-22T00:44:33;99270.06;;;7.62;74.29
74960;BME280;63518;49.572;1.106;2023-02-22T00:47:01;99276.38;;;7.58;75.48
74960;BME280;63518;49.572;1.106;2023-02-22T00:49:31;99298.59;;;7.51;76.00
74960;BME280;63518;49.572;1.106;2023-02-22T00:51:59;99288.19;;;7.53;76.60
74960;BME280;63518;49.572;1.106;2023-02-22T00:54:27;99297.22;;;7.99;74.11
74960;BME280;63518;49.572;1.106;2023-02-22T00:56:55;99287.06;;;7.80;75.23
74960;BME280;63518;49.572;1.106;2023-02-22T00:59:24;99281.28;;;7.81;74.01
74960;BME280;63518;49.572;1.106;2023-02-22T01:01:52;99291.69;;;8.10;74.32
74960;BME280;63518;49.572;1.106;2023-02-22T01:04:22;99265.63;;;7.97;73.34
74960;BME280;63518;49.572;1.106;2023-02-22T01:06:50;99256.06;;;7.84;74.21
74960;BME280;63518;49.572;1.106;2023-02-22T01:09:17;99270.03;;;7.93;73.97
74960;BME280;63518;49.572;1.106;2023-02-22T01:11:45;99272.81;;;7.83;73.88
74960;BME280;63518;49.572;1.106;2023-02-22T01:14:14;99269.78;;;7.74;74.44
74960;BME280;63518;49.572;1.106;2023-02-22T01:16:41;99273.34;;;7.85;75.37
74960;BME280;63518;49.572;1.106;2023-02-22T01:19:10;99224.22;;;7.88;74.76
74960;BME280;63518;49.572;1.106;2023-02-22T01:21:39;99270.88;;;7.93;74.28
74960;BME280;63518;49.572;1.106;2023-02-22T01:24:07;99272.53;;;7.54;75.62
74960;BME280;63518;49.572;1.106;2023-02-22T01:26:35;99266.78;;;7.35;76.85
74960;BME280;63518;49.572;1.106;2023-02-22T01:29:04;99270.84;;;7.88;75.57
74960;BME280;63518;49.572;1.106;2023-02-22T01:31:32;99269.53;;;7.55;75.89
74960;BME280;63518;49.572;1.106;2023-02-22T01:33:59;99242.66;;;7.47;76.25
74960;BME280;63518;49.572;1.106;2023-02-22T01:36:27;99267.59;;;7.71;75.26
74960;BME280;63518;49.572;1.106;2023-02-22T01:38:55;99272.53;;;7.79;75.25
74960;BME280;63518;49.572;1.106;2023-02-22T01:41:23;99262.63;;;7.93;75.34
74960;BME280;63518;49.572;1.106;2023-02-22T01:43:50;99270.34;;;7.71;75.71
74960;BME280;63518;49.572;1.106;2023-02-22T01:46:25;99267.31;;;7.83;75.42
74960;BME280;63518;49.572;1.106;2023-02-22T01:48:58;99261.81;;;7.72;75.24
74960;BME280;63518;49.572;1.106;2023-02-22T01:51:33;99264.25;;;8.15;73.36
74960;BME280;63518;49.572;1.106;2023-02-22T01:54:08;99246.72;;;7.95;74.83
74960;BME280;63518;49.572;1.106;2023-02-22T01:56:49;99250.81;;;8.03;73.45
74960;BME280;63518;49.572;1.106;2023-02-22T01:59:21;99254.16;;;7.75;74.07
74960;BME280;63518;49.572;1.106;2023-02-22T02:01:50;99264.84;;;7.86;74.76
74960;BME280;63518;49.572;1.106;2023-02-22T02:04:22;99256.03;;;7.94;73.21
74960;BME280;63518;49.572;1.106;2023-02-22T02:06:53;99225.66;;;7.60;75.58
74960;BME280;63518;49.572;1.106;2023-02-22T02:10:03;99233.47;;;8.18;73.90
74960;BME280;63518;49.572;1.106;2023-02-22T02:12:34;99241.88;;;8.47;71.58
74960;BME280;63518;49.572;1.106;2023-02-22T02:15:18;99243.28;;;8.39;71.38
74960;BME280;63518;49.572;1.106;2023-02-22T02:17:48;99232.22;;;7.69;73.68
74960;BME280;63518;49.572;1.106;2023-02-22T02:34:34;99227.28;;;7.26;77.30
74960;BME280;63518;49.572;1.106;2023-02-22T02:37:44;99223.16;;;7.18;76.89
74960;BME280;63518;49.572;1.106;2023-02-22T02:40:45;99222.91;;;7.14;78.08
74960;BME280;63518;49.572;1.106;2023-02-22T02:48:57;99219.03;;;6.95;79.12
74960;BME280;63518;49.572;1.106;2023-02-22T02:51:31;99214.66;;;6.89;79.42
74960;BME280;63518;49.572;1.106;2023-02-22T02:54:00;99191.03;;;6.68;79.15
74960;BME280;63518;49.572;1.106;2023-02-22T02:56:28;99210.53;;;6.86;78.94
74960;BME280;63518;49.572;1.106;2023-02-22T02:58:57;99212.38;;;6.71;79.11
74960;BME280;63518;49.572;1.106;2023-02-22T03:04:36;99209.38;;;6.77;79.00
74960;BME280;63518;49.572;1.106;2023-02-22T03:12:42;99205.56;;;6.83;78.12
74960;BME280;63518;49.572;1.106;2023-02-22T03:15:37;99198.41;;;6.67;77.57
74960;BME280;63518;49.572;1.106;2023-02-22T03:18:26;99197.28;;;6.63;78.00
74960;BME280;63518;49.572;1.106;2023-02-22T03:24:10;99198.66;;;6.60;79.25
74960;BME280;63518;49.572;1.106;2023-02-22T03:26:59;99205.47;;;6.48;79.08
74960;BME280;63518;49.572;1.106;2023-02-22T03:29:31;99207.38;;;6.42;79.90
74960;BME280;63518;49.572;1.106;2023-02-22T03:32:06;99194.78;;;6.46;79.35
74960;BME280;63518;49.572;1.106;2023-02-22T03:34:42;99184.88;;;6.25;79.42
74960;BME280;63518;49.572;1.106;2023-02-22T03:37:16;99146.81;;;6.18;79.20
74960;BME280;63518;49.572;1.106;2023-02-22T03:39:46;99198.28;;;6.26;80.17
74960;BME280;63518;49.572;1.106;2023-02-22T03:42:21;99216.94;;;6.34;80.30
74960;BME280;63518;49.572;1.106;2023-02-22T03:44:52;99206.81;;;6.35;79.98
74960;BME280;63518;49.572;1.106;2023-02-22T03:47:26;99208.19;;;6.38;79.82
74960;BME280;63518;49.572;1.106;2023-02-22T03:50:15;99198.56;;;6.30;79.70
74960;BME280;63518;49.572;1.106;2023-02-22T03:52:45;99201.59;;;6.28;80.18
74960;BME280;63518;49.572;1.106;2023-02-22T03:55:14;99190.09;;;6.26;80.37
74960;BME280;63518;49.572;1.106;2023-02-22T03:57:47;99183.03;;;6.41;79.68
74960;BME280;63518;49.572;1.106;2023-02-22T04:00:22;99192.28;;;6.29;80.91
74960;BME280;63518;49.572;1.106;2023-02-22T04:02:51;99193.69;;;6.32;80.81
74960;BME280;63518;49.572;1.106;2023-02-22T04:05:19;99196.97;;;6.44;81.21
74960;BME280;63518;49.572;1.106;2023-02-22T04:07:47;99176.41;;;6.26;81.49
74960;BME280;63518;49.572;1.106;2023-02-22T04:10:15;99201.88;;;6.37;81.84
74960;BME280;63518;49.572;1.106;2023-02-22T04:12:43;99186.22;;;6.22;81.88
74960;BME280;63518;49.572;1.106;2023-02-22T04:15:14;99193.91;;;6.30;81.83
74960;BME280;63518;49.572;1.106;2023-02-22T04:17:42;99207.38;;;6.42;81.98
74960;BME280;63518;49.572;1.106;2023-02-22T04:20:10;99174.25;;;6.44;81.74
74960;BME280;63518;49.572;1.106;2023-02-22T04:22:40;99170.72;;;6.43;81.02
74960;BME280;63518;49.572;1.106;2023-02-22T04:25:08;99168.75;;;6.39;80.50
74960;BME280;63518;49.572;1.106;2023-02-22T04:27:36;99166.28;;;6.27;80.86
74960;BME280;63518;49.572;1.106;2023-02-22T04:30:04;99157.78;;;6.28;80.82
74960;BME280;63518;49.572;1.106;2023-02-22T04:32:32;99177.50;;;6.30;80.98
74960;BME280;63518;49.572;1.106;2023-02-22T04:35:00;99201.38;;;6.45;80.91
74960;BME280;63518;49.572;1.106;2023-02-22T04:37:28;99186.59;;;6.46;81.36
74960;BME280;63518;49.572;1.106;2023-02-22T04:39:55;99181.91;;;6.37;80.84
74960;BME280;63518;49.572;1.106;2023-02-22T04:42:23;99181.06;;;6.26;80.57
74960;BME280;63518;49.572;1.106;2023-02-22T04:44:51;99170.06;;;6.16;80.67
74960;BME280;63518;49.572;1.106;2023-02-22T04:47:19;99149.25;;;6.15;80.50
74960;BME280;63518;49.572;1.106;2023-02-22T04:49:49;99124.66;;;6.20;79.66
74960;BME280;63518;49.572;1.106;2023-02-22T04:52:17;99157.78;;;6.28;80.22
74960;BME280;63518;49.572;1.106;2023-02-22T04:54:44;99157.19;;;6.11;81.14
74960;BME280;63518;49.572;1.106;2023-02-22T04:57:15;99167.56;;;6.04;82.27
74960;BME280;63518;49.572;1.106;2023-02-22T04:59:43;99167.00;;;6.07;82.53
74960;BME280;63518;49.572;1.106;2023-02-22T05:02:10;99144.06;;;6.13;81.70
74960;BME280;63518;49.572;1.106;2023-02-22T05:04:38;99169.28;;;6.25;80.94
74960;BME280;63518;49.572;1.106;2023-02-22T05:07:06;99151.78;;;6.37;80.45
74960;BME280;63518;49.572;1.106;2023-02-22T05:09:33;99128.97;;;5.95;81.83
74960;BME280;63518;49.572;1.106;2023-02-22T05:12:01;99159.97;;;6.31;80.97
74960;BME280;63518;49.572;1.106;2023-02-22T05:14:29;99163.56;;;6.32;80.80
74960;BME280;63518;49.572;1.106;2023-02-22T05:16:57;99160.81;;;6.37;81.04
74960;BME280;63518;49.572;1.106;2023-02-22T05:19:25;99168.69;;;6.13;81.85
74960;BME280;63518;49.572;1.106;2023-02-22T05:21:55;99153.97;;;6.24;80.84
74960;BME280;63518;49.572;1.106;2023-02-22T05:24:24;99146.38;;;6.57;80.13
74960;BME280;63518;49.572;1.106;2023-02-22T05:26:52;99151.47;;;6.23;80.94
74960;BME280;63518;49.572;1.106;2023-02-22T05:29:20;99176.63;;;6.15;81.57
74960;BME280;63518;49.572;1.106;2023-02-22T05:31:47;99172.03;;;6.30;81.67
74960;BME280;63518;49.572;1.106;2023-02-22T05:34:39;99175.34;;;6.32;81.48
74960;BME280;63518;49.572;1.106;2023-02-22T05:37:31;99188.72;;;6.29;82.34
74960;BME280;63518;49.572;1.106;2023-02-22T05:40:24;99166.25;;;6.17;81.67
74960;BME280;63518;49.572;1.106;2023-02-22T05:43:17;99163.59;;;6.42;81.01
74960;BME280;63518;49.572;1.106;2023-02-22T05:46:08;99167.16;;;6.43;80.24
74960;BME280;63518;49.572;1.106;2023-02-22T05:49:00;99179.66;;;6.18;81.66
74960;BME280;63518;49.572;1.106;2023-02-22T05:51:51;99169.28;;;6.25;82.48
74960;BME280;63518;49.572;1.106;2023-02-22T07:38:18;99277.59;;;6.74;83.27
74960;BME280;63518;49.572;1.106;2023-02-22T07:40:46;99279.13;;;6.49;84.60
74960;BME280;63518;49.572;1.106;2023-02-22T07:43:25;99252.53;;;6.40;83.76
74960;BME280;63518;49.572;1.106;2023-02-22T07:45:55;99265.16;;;6.41;84.83
74960;BME280;63518;49.572;1.106;2023-02-22T07:48:25;99241.47;;;6.14;84.99
74960;BME280;63518;49.572;1.106;2023-02-22T07:50:54;99275.53;;;6.44;85.45
74960;BME280;63518;49.572;1.106;2023-02-22T07:53:24;99281.03;;;6.44;85.74
74960;BME280;63518;49.572;1.106;2023-02-22T07:56:00;99281.56;;;6.41;85.87
74960;BME280;63518;49.572;1.106;2023-02-22T07:58:29;99264.53;;;6.28;85.44
74960;BME280;63518;49.572;1.106;2023-02-22T08:00:58;99263.94;;;6.16;87.25
74960;BME280;63518;49.572;1.106;2023-02-22T08:03:31;99289.28;;;6.49;85.95
74960;BME280;63518;49.572;1.106;2023-02-22T08:06:06;99268.81;;;6.77;83.98
74960;BME280;63518;49.572;1.106;2023-02-22T08:08:35;99284.44;;;6.76;84.94
74960;BME280;63518;49.572;1.106;2023-02-22T08:11:04;99290.81;;;6.92;84.44
74960;BME280;63518;49.572;1.106;2023-02-22T08:13:32;99249.53;;;6.41;84.49
74960;BME280;63518;49.572;1.106;2023-02-22T08:16:00;99251.47;;;6.46;85.22
74960;BME280;63518;49.572;1.106;2023-02-22T08:18:29;99294.38;;;7.03;83.95
74960;BME280;63518;49.572;1.106;2023-02-22T08:20:56;99289.53;;;7.20;82.96
74960;BME280;63518;49.572;1.106;2023-02-22T08:23:25;99275.81;;;7.25;81.35
74960;BME280;63518;49.572;1.106;2023-02-22T08:25:54;99294.91;;;6.89;83.15
74960;BME280;63518;49.572;1.106;2023-02-22T08:28:23;99259.31;;;7.00;81.83
74960;BME280;63518;49.572;1.106;2023-02-22T08:30:52;99289.53;;;7.30;82.03
74960;BME280;63518;49.572;1.106;2023-02-22T08:33:21;99294.13;;;6.99;82.55
74960;BME280;63518;49.572;1.106;2023-02-22T08:35:49;99269.50;;;7.14;81.56
74960;BME280;63518;49.572;1.106;2023-02-22T08:38:29;99259.88;;;7.07;82.26
74960;BME280;63518;49.572;1.106;2023-02-22T08:40:57;99286.47;;;7.06;82.86
74960;BME280;63518;49.572;1.106;2023-02-22T08:43:26;99287.31;;;7.17;82.17
74960;BME280;63518;49.572;1.106;2023-02-22T08:45:55;99300.19;;;7.27;82.50
74960;BME280;63518;49.572;1.106;2023-02-22T08:48:24;99308.69;;;7.15;81.56
74960;BME280;63518;49.572;1.106;2023-02-22T08:50:52;99292.78;;;7.17;81.39
74960;BME280;63518;49.572;1.106;2023-02-22T08:53:19;99310.09;;;7.38;80.61
74960;BME280;63518;49.572;1.106;2023-02-22T08:55:47;99301.56;;;7.19;82.20
74960;BME280;63518;49.572;1.106;2023-02-22T08:58:16;99288.91;;;7.03;83.01
74960;BME280;63518;49.572;1.106;2023-02-22T09:00:45;99311.47;;;7.35;81.22
74960;BME280;63518;49.572;1.106;2023-02-22T09:03:14;99285.69;;;7.41;81.67
74960;BME280;63518;49.572;1.106;2023-02-22T09:05:43;99304.59;;;7.58;80.68
74960;BME280;63518;49.572;1.106;2023-02-22T09:08:11;99303.78;;;7.73;80.74
74960;BME280;63518;49.572;1.106;2023-02-22T09:10:39;99303.25;;;7.51;80.46
74960;BME280;63518;49.572;1.106;2023-02-22T09:13:08;99265.94;;;7.29;80.57
74960;BME280;63518;49.572;1.106;2023-02-22T09:15:36;99287.91;;;7.44;81.65
74960;BME280;63518;49.572;1.106;2023-02-22T09:18:06;99290.91;;;7.63;80.44
74960;BME280;63518;49.572;1.106;2023-02-22T09:20:38;99277.44;;;7.26;82.15
74960;BME280;63518;49.572;1.106;2023-02-22T09:23:06;99291.69;;;7.23;82.16
74960;BME280;63518;49.572;1.106;2023-02-22T09:25:38;99280.47;;;7.25;82.21
74960;BME280;63518;49.572;1.106;2023-02-22T09:28:07;99296.69;;;7.52;81.21
74960;BME280;63518;49.572;1.106;2023-02-22T09:30:36;99290.09;;;7.68;82.01
74960;BME280;63518;49.572;1.106;2023-02-22T09:33:07;99285.16;;;7.65;81.90
74960;BME280;63518;49.572;1.106;2023-02-22T09:35:39;99284.31;;;7.85;82.21
74960;BME280;63518;49.572;1.106;2023-02-22T09:38:15;99265.13;;;7.64;81.78
74960;BME280;63518;49.572;1.106;2023-02-22T09:40:47;99279.34;;;7.97;79.97
74960;BME280;63518;49.572;1.106;2023-02-22T09:56:55;99273.34;;;7.80;81.72
74960;BME280;63518;49.572;1.106;2023-02-22T09:59:29;99277.44;;;8.08;80.86
74960;BME280;63518;49.572;1.106;2023-02-22T10:02:17;99270.56;;;8.10;81.48
74960;BME280;63518;49.572;1.106;2023-02-22T10:04:53;99255.16;;;8.19;79.35
74960;BME280;63518;49.572;1.106;2023-02-22T10:07:34;99262.47;;;8.49;78.57
74960;BME280;63518;49.572;1.106;2023-02-22T10:10:05;99263.13;;;8.16;81.31
74960;BME280;63518;49.572;1.106;2023-02-22T10:12:58;99232.16;;;7.90;80.78
74960;BME280;63518;49.572;1.106;2023-02-22T10:15:41;99254.66;;;7.97;81.53
74960;BME280;63518;49.572;1.106;2023-02-22T10:26:35;99263.13;;;8.06;81.13
74960;BME280;63518;49.572;1.106;2023-02-22T10:29:45;99267.84;;;8.00;81.57
74960;BME280;63518;49.572;1.106;2023-02-22T10:32:13;99259.59;;;7.90;80.95
74960;BME280;63518;49.572;1.106;2023-02-22T10:34:48;99266.41;;;8.18;80.69
74960;BME280;63518;49.572;1.106;2023-02-22T10:37:28;99261.50;;;8.05;81.93
74960;BME280;63518;49.572;1.106;2023-02-22T10:42:39;99271.94;;;7.97;81.16
74960;BME280;63518;49.572;1.106;2023-02-22T10:47:45;99242.53;;;8.23;81.60
74960;BME280;63518;49.572;1.106;2023-02-22T10:50:13;99274.94;;;8.16;81.48
74960;BME280;63518;49.572;1.106;2023-02-22T10:52:41;99264.03;;;7.76;81.72
74960;BME280;63518;49.572;1.106;2023-02-22T10:55:12;99274.44;;;7.99;81.93
74960;BME280;63518;49.572;1.106;2023-02-22T10:57:46;99268.38;;;8.07;81.17
74960;BME280;63518;49.572;1.106;2023-02-22T11:02:55;99265.88;;;8.16;81.76
74960;BME280;63518;49.572;1.106;2023-02-22T11:05:32;99268.56;;;8.36;81.25
74960;BME280;63518;49.572;1.106;2023-02-22T11:08:27;99273.59;;;8.09;82.34
74960;BME280;63518;49.572;1.106;2023-02-22T11:10:59;99259.31;;;8.01;81.12
74960;BME280;63518;49.572;1.106;2023-02-22T11:13:30;99275.75;;;8.12;81.88
74960;BME280;63518;49.572;1.106;2023-02-22T11:16:01;99273.06;;;7.86;82.61
74960;BME280;63518;49.572;1.106;2023-02-22T11:18:45;99271.38;;;8.11;81.98
74960;BME280;63518;49.572;1.106;2023-02-22T11:21:20;99286.50;;;7.93;83.22
74960;BME280;63518;49.572;1.106;2023-02-22T11:23:49;99264.28;;;7.89;81.45
74960;BME280;63518;49.572;1.106;2023-02-22T11:26:45;99276.31;;;8.14;81.79
74960;BME280;63518;49.572;1.106;2023-02-22T11:31:54;99262.91;;;7.87;82.17
74960;BME280;63518;49.572;1.106;2023-02-22T11:34:38;99278.03;;;7.69;82.15
74960;BME280;63518;49.572;1.106;2023-02-22T11:40:18;99275.22;;;8.05;82.89
74960;BME280;63518;49.572;1.106;2023-02-22T11:43:05;99249.44;;;7.95;81.12
74960;BME280;63518;49.572;1.106;2023-02-22T11:45:34;99236.00;;;7.94;82.10
74960;BME280;63518;49.572;1.106;2023-02-22T11:48:14;99252.94;;;8.21;81.40
74960;BME280;63518;49.572;1.106;2023-02-22T11:51:09;99238.47;;;7.95;82.33
74960;BME280;63518;49.572;1.106;2023-02-22T11:53:53;99259.22;;;8.37;81.95
74960;BME280;63518;49.572;1.106;2023-02-22T11:56:35;99257.38;;;8.12;82.18
74960;BME280;63518;49.572;1.106;2023-02-22T12:08:14;99251.50;;;8.44;81.39
74960;BME280;63518;49.572;1.106;2023-02-22T12:11:02;99251.38;;;8.00;82.59
74960;BME280;63518;49.572;1.106;2023-02-22T12:19:29;99252.59;;;8.43;79.89
74960;BME280;63518;49.572;1.106;2023-02-22T12:22:03;99249.75;;;8.79;79.96
74960;BME280;63518;49.572;1.106;2023-02-22T12:24:44;99210.94;;;8.21;80.51
74960;BME280;63518;49.572;1.106;2023-02-22T12:27:23;99224.91;;;8.40;81.58
74960;BME280;63518;49.572;1.106;2023-02-22T12:29:54;99239.63;;;8.59;81.26
74960;BME280;63518;49.572;1.106;2023-02-22T12:40:40;99232.34;;;8.89;80.34
74960;BME280;63518;49.572;1.106;2023-02-22T12:43:18;99248.50;;;8.46;80.30
74960;BME280;63518;49.572;1.106;2023-02-22T12:45:55;99240.44;;;8.60;80.60
74960;BME280;63518;49.572;1.106;2023-02-22T12:48:32;99237.22;;;8.47;79.94
74960;BME280;63518;49.572;1.106;2023-02-22T12:51:14;99240.13;;;8.76;79.94
74960;BME280;63518;49.572;1.106;2023-02-22T12:54:06;99198.09;;;8.71;78.73
74960;BME280;63518;49.572;1.106;2023-02-22T12:57:00;99207.47;;;8.65;79.00
74960;BME280;63518;49.572;1.106;2023-02-22T12:59:52;99235.66;;;8.21;81.46
74960;BME280;63518;49.572;1.106;2023-02-22T13:02:30;99207.66;;;8.19;79.47
74960;BME280;63518;49.572;1.106;2023-02-22T13:05:00;99245.56;;;8.17;80.39
74960;BME280;63518;49.572;1.106;2023-02-22T13:20:39;99250.31;;;8.66;79.57
74960;BME280;63518;49.572;1.106;2023-02-22T13:23:42;99245.09;;;8.69;79.41
74960;BME280;63518;49.572;1.106;2023-02-22T13:26:24;99234.88;;;8.85;78.12
74960;BME280;63518;49.572;1.106;2023-02-22T13:29:02;99242.31;;;8.74;79.22
74960;BME280;63518;49.572;1.106;2023-02-22T13:37:40;99234.06;;;9.58;77.43
74960;BME280;63518;49.572;1.106;2023-02-22T13:40:54;99229.91;;;8.87;78.81
74960;BME280;63518;49.572;1.106;2023-02-22T13:51:52;99228.13;;;9.06;77.74
74960;BME280;63518;49.572;1.106;2023-02-22T13:54:41;99225.41;;;9.01;78.92
74960;BME280;63518;49.572;1.106;2023-02-22T13:57:37;99226.81;;;9.67;77.63
74960;BME280;63518;49.572;1.106;2023-02-22T14:11:04;99218.53;;;8.99;78.38
74960;BME280;63518;49.572;1.106;2023-02-22T14:16:28;99221.72;;;8.72;79.74
74960;BME280;63518;49.572;1.106;2023-02-22T14:21:36;99199.69;;;8.82;78.38
74960;BME280;63518;49.572;1.106;2023-02-22T14:24:11;99223.09;;;8.74;79.35
74960;BME280;63518;49.572;1.106;2023-02-22T14:26:55;99208.75;;;8.88;77.63
74960;BME280;63518;49.572;1.106;2023-02-22T14:29:24;99219.16;;;8.91;78.59
74960;BME280;63518;49.572;1.106;2023-02-22T14:32:05;99230.91;;;9.01;79.79
74960;BME280;63518;49.572;1.106;2023-02-22T14:34:49;99234.00;;;8.90;79.53
74960;BME280;63518;49.572;1.106;2023-02-22T14:37:26;99228.25;;;8.86;78.79
74960;BME280;63518;49.572;1.106;2023-02-22T14:40:01;99224.13;;;8.83;78.38
74960;BME280;63518;49.572;1.106;2023-02-22T14:42:43;99208.81;;;8.72;77.71
74960;BME280;63518;49.572;1.106;2023-02-22T14:45:31;99233.72;;;8.91;78.44
74960;BME280;63518;49.572;1.106;2023-02-22T14:53:17;99227.75;;;8.69;80.43
74960;BME280;63518;49.572;1.106;2023-02-22T14:55:57;99233.03;;;8.60;79.30
74960;BME280;63518;49.572;1.106;2023-02-22T14:59:15;99218.59;;;8.29;81.02
74960;BME280;63518;49.572;1.106;2023-02-22T15:01:44;99223.25;;;8.34;80.28
74960;BME280;63518;49.572;1.106;2023-02-22T15:04:32;99228.75;;;8.34;79.93
74960;BME280;63518;49.572;1.106;2023-02-22T15:07:20;99205.88;;;8.53;78.62
74960;BME280;63518;49.572;1.106;2023-02-22T15:09:48;99201.25;;;8.44;79.42
74960;BME280;63518;49.572;1.106;2023-02-22T15:12:26;99197.66;;;8.48;79.59
74960;BME280;63518;49.572;1.106;2023-02-22T15:15:12;99213.25;;;8.58;79.96
74960;BME280;63518;49.572;1.106;2023-02-22T15:17:44;99222.63;;;8.52;79.43
74960;BME280;63518;49.572;1.106;2023-02-22T15:20:15;99232.66;;;8.22;79.67
74960;BME280;63518;49.572;1.106;2023-02-22T15:22:43;99235.31;;;8.43;81.20
74960;BME280;63518;49.572;1.106;2023-02-22T15:25:11;99210.56;;;8.48;79.42
74960;BME280;63518;49.572;1.106;2023-02-22T15:27:39;99234.19;;;8.54;81.21
74960;BME280;63518;49.572;1.106;2023-02-22T15:30:17;99227.06;;;8.43;79.88
74960;BME280;63518;49.572;1.106;2023-02-22T15:32:44;99234.00;;;8.25;81.26
74960;BME280;63518;49.572;1.106;2023-02-22T15:35:31;99233.41;;;8.38;80.09
74960;BME280;63518;49.572;1.106;2023-02-22T15:38:18;99240.31;;;8.20;81.62
74960;BME280;63518;49.572;1.106;2023-02-22T15:40:54;99214.13;;;8.53;80.57
74960;BME280;63518;49.572;1.106;2023-02-22T15:43:25;99235.19;;;8.73;78.96
74960;BME280;63518;49.572;1.106;2023-02-22T15:45:55;99234.91;;;8.70;79.51
74960;BME280;63518;49.572;1.106;2023-02-22T15:48:25;99230.09;;;8.46;80.59
74960;BME280;63518;49.572;1.106;2023-02-22T15:53:48;99221.63;;;8.33;80.58
74960;BME280;63518;49.572;1.106;2023-02-22T15:56:24;99240.78;;;8.43;81.44
74960;BME280;63518;49.572;1.106;2023-02-22T15:58:57;99240.41;;;8.70;78.88
74960;BME280;63518;49.572;1.106;2023-02-22T16:01:25;99234.13;;;8.64;80.77
74960;BME280;63518;49.572;1.106;2023-02-22T16:03:57;99233.31;;;8.58;78.42
74960;BME280;63518;49.572;1.106;2023-02-22T16:06:38;99239.88;;;8.73;80.43
74960;BME280;63518;49.572;1.106;2023-02-22T16:09:21;99233.88;;;8.55;80.01
74960;BME280;63518;49.572;1.106;2023-02-22T16:22:46;99247.69;;;8.35;81.22
74960;BME280;63518;49.572;1.106;2023-02-22T16:28:24;99243.09;;;8.15;82.49
74960;BME280;63518;49.572;1.106;2023-02-22T16:30:58;99240.91;;;8.12;81.86
74960;BME280;63518;49.572;1.106;2023-02-22T16:33:31;99255.16;;;8.19;80.90
74960;BME280;63518;49.572;1.106;2023-02-22T16:36:04;99242.78;;;8.27;81.05
74960;BME280;63518;49.572;1.106;2023-02-22T16:38:32;99239.44;;;8.40;80.59
74960;BME280;63518;49.572;1.106;2023-02-22T16:41:05;99235.44;;;8.02;82.43
74960;BME280;63518;49.572;1.106;2023-02-22T16:43:34;99236.56;;;7.91;82.59
74960;BME280;63518;49.572;1.106;2023-02-22T16:46:03;99226.06;;;8.13;81.87
74960;BME280;63518;49.572;1.106;2023-02-22T16:48:33;99221.72;;;8.07;80.52
74960;BME280;63518;49.572;1.106;2023-02-22T16:51:22;99248.31;;;8.12;82.59
74960;BME280;63518;49.572;1.106;2023-02-22T16:53:53;99254.28;;;8.39;82.32
74960;BME280;63518;49.572;1.106;2023-02-22T16:56:28;99244.16;;;8.29;81.14
74960;BME280;63518;49.572;1.106;2023-02-22T16:59:02;99243.63;;;8.12;81.19
74960;BME280;63518;49.572;1.106;2023-02-22T17:01:34;99241.91;;;8.37;81.87
74960;BME280;63518;49.572;1.106;2023-02-22T17:04:14;99239.75;;;8.28;82.13
74960;BME280;63518;49.572;1.106;2023-02-22T17:06:43;99240.94;;;8.07;82.01
74960;BME280;63518;49.572;1.106;2023-02-22T17:09:13;99221.97;;;8.06;81.89
74960;BME280;63518;49.572;1.106;2023-02-22T17:11:49;99251.81;;;8.38;80.55
74960;BME280;63518;49.572;1.106;2023-02-22T17:14:21;99211.75;;;8.21;79.71
74960;BME280;63518;49.572;1.106;2023-02-22T17:16:50;99255.91;;;8.45;80.93
74960;BME280;63518;49.572;1.106;2023-02-22T17:19:22;99244.50;;;7.97;81.98
74960;BME280;63518;49.572;1.106;2023-02-22T17:21:53;99227.94;;;8.28;81.25
74960;BME280;63518;49.572;1.106;2023-02-22T17:24:27;99251.81;;;8.33;81.82
74960;BME280;63518;49.572;1.106;2023-02-22T17:26:56;99251.06;;;8.12;81.22
74960;BME280;63518;49.572;1.106;2023-02-22T17:29:27;99247.28;;;7.82;82.13
74960;BME280;63518;49.572;1.106;2023-02-22T17:31:55;99246.94;;;8.14;82.20
74960;BME280;63518;49.572;1.106;2023-02-22T17:34:25;99255.09;;;8.35;80.34
74960;BME280;63518;49.572;1.106;2023-02-22T17:36:59;99217.13;;;7.77;81.77
74960;BME280;63518;49.572;1.106;2023-02-22T17:39:30;99226.91;;;8.09;83.12
74960;BME280;63518;49.572;1.106;2023-02-22T17:41:58;99239.56;;;7.94;81.32
74960;BME280;63518;49.572;1.106;2023-02-22T17:44:26;99270.25;;;8.22;81.54
74960;BME280;63518;49.572;1.106;2023-02-22T17:47:05;99265.31;;;8.19;82.47
74960;BME280;63518;49.572;1.106;2023-02-22T17:49:36;99250.75;;;8.23;81.63
74960;BME280;63518;49.572;1.106;2023-02-22T17:52:07;99258.22;;;8.08;80.83
74960;BME280;63518;49.572;1.106;2023-02-22T17:54:35;99263.72;;;8.08;80.55
74960;BME280;63518;49.572;1.106;2023-02-22T17:57:09;99275.81;;;7.91;81.16
74960;BME280;63518;49.572;1.106;2023-02-22T17:59:38;99289.75;;;8.05;81.42
74960;BME280;63518;49.572;1.106;2023-02-22T18:02:07;99282.84;;;8.28;80.82
74960;BME280;63518;49.572;1.106;2023-02-22T18:04:38;99283.72;;;8.18;80.90
74960;BME280;63518;49.572;1.106;2023-02-22T18:07:10;99282.31;;;8.21;81.94